sensor_id;sensor_type;location;lat;lon;timestamp;temperature;humidity
51878;SHT31;37911;51.526;11.536;2024-03-25T00:02:33;5.05;88.65
51878;SHT31;37911;51.526;11.536;2024-03-25T00:05:33;5.08;88.74
51878;SHT31;37911;51.526;11.536;2024-03-25T00:08:36;5.05;88.81
51878;SHT31;37911;51.526;11.536;2024-03-25T00:11:37;5.00;88.36
51878;SHT31;37911;51.526;11.536;2024-03-25T00:14:37;5.06;87.94
51878;SHT31;37911;51.526;11.536;2024-03-25T00:17:38;5.00;88.01
51878;SHT31;37911;51.526;11.536;2024-03-25T00:20:39;5.03;88.14
51878;SHT31;37911;51.526;11.536;2024-03-25T00:23:42;5.03;88.17
51878;SHT31;37911;51.526;11.536;2024-03-25T00:26:42;5.02;87.83
51878;SHT31;37911;51.526;11.536;2024-03-25T00:29:43;5.02;88.01
51878;SHT31;37911;51.526;11.536;2024-03-25T00:32:44;4.99;88.39
51878;SHT31;37911;51.526;11.536;2024-03-25T00:35:44;5.00;88.48
51878;SHT31;37911;51.526;11.536;2024-03-25T00:38:48;4.99;88.59
51878;SHT31;37911;51.526;11.536;2024-03-25T00:41:48;5.06;88.47
51878;SHT31;37911;51.526;11.536;2024-03-25T00:44:49;4.97;88.82
51878;SHT31;37911;51.526;11.536;2024-03-25T00:47:50;4.95;89.35
51878;SHT31;37911;51.526;11.536;2024-03-25T00:50:50;4.93;89.55
51878;SHT31;37911;51.526;11.536;2024-03-25T00:53:53;4.91;89.70
51878;SHT31;37911;51.526;11.536;2024-03-25T00:56:54;4.89;89.83
51878;SHT31;37911;51.526;11.536;2024-03-25T00:59:54;4.92;89.84
51878;SHT31;37911;51.526;11.536;2024-03-25T01:02:55;4.91;89.71
51878;SHT31;37911;51.526;11.536;2024-03-25T01:05:56;4.91;89.82
51878;SHT31;37911;51.526;11.536;2024-03-25T01:08:59;4.92;89.68
51878;SHT31;37911;51.526;11.536;2024-03-25T01:11:59;4.95;89.28
51878;SHT31;37911;51.526;11.536;2024-03-25T01:15:00;4.92;89.04
51878;SHT31;37911;51.526;11.536;2024-03-25T01:18:00;4.97;88.92
51878;SHT31;37911;51.526;11.536;2024-03-25T01:21:01;4.97;88.80
51878;SHT31;37911;51.526;11.536;2024-03-25T01:24:04;4.92;89.01
51878;SHT31;37911;51.526;11.536;2024-03-25T01:27:05;4.97;88.72
51878;SHT31;37911;51.526;11.536;2024-03-25T01:30:06;4.89;88.76
51878;SHT31;37911;51.526;11.536;2024-03-25T01:33:07;4.89;88.75
51878;SHT31;37911;51.526;11.536;2024-03-25T01:36:07;4.81;88.72
51878;SHT31;37911;51.526;11.536;2024-03-25T01:39:10;4.83;88.15
51878;SHT31;37911;51.526;11.536;2024-03-25T01:42:11;4.88;88.12
51878;SHT31;37911;51.526;11.536;2024-03-25T01:45:12;4.83;87.95
51878;SHT31;37911;51.526;11.536;2024-03-25T01:48:12;4.83;87.94
51878;SHT31;37911;51.526;11.536;2024-03-25T01:51:13;4.88;87.86
51878;SHT31;37911;51.526;11.536;2024-03-25T01:54:17;4.83;87.87
51878;SHT31;37911;51.526;11.536;2024-03-25T01:57:18;4.82;88.18
51878;SHT31;37911;51.526;11.536;2024-03-25T02:00:19;4.81;88.15
51878;SHT31;37911;51.526;11.536;2024-03-25T02:03:20;4.78;88.39
51878;SHT31;37911;51.526;11.536;2024-03-25T02:06:22;4.76;88.67
51878;SHT31;37911;51.526;11.536;2024-03-25T02:09:26;4.78;88.81
51878;SHT31;37911;51.526;11.536;2024-03-25T02:12:28;4.78;88.86
51878;SHT31;37911;51.526;11.536;2024-03-25T02:15:29;4.76;89.11
51878;SHT31;37911;51.526;11.536;2024-03-25T02:18:29;4.71;89.63
51878;SHT31;37911;51.526;11.536;2024-03-25T02:21:30;4.81;89.67
51878;SHT31;37911;51.526;11.536;2024-03-25T02:24:34;4.82;89.84
51878;SHT31;37911;51.526;11.536;2024-03-25T02:27:37;4.81;90.33
51878;SHT31;37911;51.526;11.536;2024-03-25T02:30:38;4.79;90.48
51878;SHT31;37911;51.526;11.536;2024-03-25T02:33:38;4.79;90.89
51878;SHT31;37911;51.526;11.536;2024-03-25T02:36:39;4.78;90.76
51878;SHT31;37911;51.526;11.536;2024-03-25T02:39:40;4.79;90.87
51878;SHT31;37911;51.526;11.536;2024-03-25T02:42:43;4.82;90.99
51878;SHT31;37911;51.526;11.536;2024-03-25T02:45:44;4.81;91.04
51878;SHT31;37911;51.526;11.536;2024-03-25T02:48:45;4.82;91.17
51878;SHT31;37911;51.526;11.536;2024-03-25T02:51:46;4.82;91.03
51878;SHT31;37911;51.526;11.536;2024-03-25T02:54:46;4.75;91.06
51878;SHT31;37911;51.526;11.536;2024-03-25T02:57:49;4.71;90.88
51878;SHT31;37911;51.526;11.536;2024-03-25T03:00:50;4.71;90.85
51878;SHT31;37911;51.526;11.536;2024-03-25T03:03:51;4.71;90.77
51878;SHT31;37911;51.526;11.536;2024-03-25T03:06:51;4.73;90.75
51878;SHT31;37911;51.526;11.536;2024-03-25T03:09:52;4.69;90.54
51878;SHT31;37911;51.526;11.536;2024-03-25T03:12:55;4.65;90.60
51878;SHT31;37911;51.526;11.536;2024-03-25T03:15:55;4.68;90.29
51878;SHT31;37911;51.526;11.536;2024-03-25T03:18:56;4.69;90.04
51878;SHT31;37911;51.526;11.536;2024-03-25T03:21:57;4.67;89.88
51878;SHT31;37911;51.526;11.536;2024-03-25T03:24:57;4.61;89.90
51878;SHT31;37911;51.526;11.536;2024-03-25T03:28:01;4.58;89.95
51878;SHT31;37911;51.526;11.536;2024-03-25T03:31:01;4.55;90.00
51878;SHT31;37911;51.526;11.536;2024-03-25T03:34:02;4.55;90.25
51878;SHT31;37911;51.526;11.536;2024-03-25T03:37:03;4.55;90.26
51878;SHT31;37911;51.526;11.536;2024-03-25T03:40:04;4.67;89.93
51878;SHT31;37911;51.526;11.536;2024-03-25T03:43:07;4.57;89.84
51878;SHT31;37911;51.526;11.536;2024-03-25T03:46:08;4.54;89.69
51878;SHT31;37911;51.526;11.536;2024-03-25T03:49:08;4.52;89.82
51878;SHT31;37911;51.526;11.536;2024-03-25T03:52:09;4.52;89.80
51878;SHT31;37911;51.526;11.536;2024-03-25T03:55:09;4.51;89.80
51878;SHT31;37911;51.526;11.536;2024-03-25T03:58:13;4.51;89.33
51878;SHT31;37911;51.526;11.536;2024-03-25T04:01:14;4.48;88.99
51878;SHT31;37911;51.526;11.536;2024-03-25T04:04:14;4.50;88.86
51878;SHT31;37911;51.526;11.536;2024-03-25T04:07:15;4.48;88.87
51878;SHT31;37911;51.526;11.536;2024-03-25T04:10:15;4.51;88.69
51878;SHT31;37911;51.526;11.536;2024-03-25T04:13:19;4.47;88.83
51878;SHT31;37911;51.526;11.536;2024-03-25T04:16:19;4.51;88.69
51878;SHT31;37911;51.526;11.536;2024-03-25T04:19:20;4.48;88.79
51878;SHT31;37911;51.526;11.536;2024-03-25T04:22:23;4.48;88.90
51878;SHT31;37911;51.526;11.536;2024-03-25T04:25:24;4.45;89.24
51878;SHT31;37911;51.526;11.536;2024-03-25T04:28:27;4.42;89.45
51878;SHT31;37911;51.526;11.536;2024-03-25T04:31:27;4.42;89.39
51878;SHT31;37911;51.526;11.536;2024-03-25T04:34:28;4.44;89.32
51878;SHT31;37911;51.526;11.536;2024-03-25T04:37:29;4.41;89.29
51878;SHT31;37911;51.526;11.536;2024-03-25T04:40:30;4.37;89.37
51878;SHT31;37911;51.526;11.536;2024-03-25T04:43:33;4.33;89.46
51878;SHT31;37911;51.526;11.536;2024-03-25T04:46:33;4.31;89.27
51878;SHT31;37911;51.526;11.536;2024-03-25T04:49:34;4.28;89.22
51878;SHT31;37911;51.526;11.536;2024-03-25T04:52:34;4.25;89.01
51878;SHT31;37911;51.526;11.536;2024-03-25T04:55:35;4.27;88.76
51878;SHT31;37911;51.526;11.536;2024-03-25T04:58:38;4.28;88.29
51878;SHT31;37911;51.526;11.536;2024-03-25T05:01:39;4.36;87.41
51878;SHT31;37911;51.526;11.536;2024-03-25T05:04:39;4.42;86.93
51878;SHT31;37911;51.526;11.536;2024-03-25T05:07:40;4.42;87.04
51878;SHT31;37911;51.526;11.536;2024-03-25T05:10:40;4.48;86.51
51878;SHT31;37911;51.526;11.536;2024-03-25T05:13:44;4.48;86.64
51878;SHT31;37911;51.526;11.536;2024-03-25T05:16:44;4.45;86.97
51878;SHT31;37911;51.526;11.536;2024-03-25T05:19:45;4.48;87.11
51878;SHT31;37911;51.526;11.536;2024-03-25T05:22:45;4.48;87.36
51878;SHT31;37911;51.526;11.536;2024-03-25T05:25:46;4.47;87.44
51878;SHT31;37911;51.526;11.536;2024-03-25T05:28:49;4.44;87.29
51878;SHT31;37911;51.526;11.536;2024-03-25T05:31:55;4.42;87.14
51878;SHT31;37911;51.526;11.536;2024-03-25T05:34:56;4.36;87.14
51878;SHT31;37911;51.526;11.536;2024-03-25T05:37:57;4.38;87.03
51878;SHT31;37911;51.526;11.536;2024-03-25T05:40:58;4.36;86.83
51878;SHT31;37911;51.526;11.536;2024-03-25T05:44:01;4.40;87.00
51878;SHT31;37911;51.526;11.536;2024-03-25T05:47:01;4.42;86.97
51878;SHT31;37911;51.526;11.536;2024-03-25T05:50:02;4.48;86.54
51878;SHT31;37911;51.526;11.536;2024-03-25T05:53:03;4.50;86.37
51878;SHT31;37911;51.526;11.536;2024-03-25T05:56:04;4.50;86.48
51878;SHT31;37911;51.526;11.536;2024-03-25T05:59:07;4.48;86.57
51878;SHT31;37911;51.526;11.536;2024-03-25T06:02:08;4.51;86.57
51878;SHT31;37911;51.526;11.536;2024-03-25T06:05:08;4.47;86.66
51878;SHT31;37911;51.526;11.536;2024-03-25T06:08:09;4.45;86.74
51878;SHT31;37911;51.526;11.536;2024-03-25T06:11:10;4.83;86.81
51878;SHT31;37911;51.526;11.536;2024-03-25T06:14:13;5.57;84.77
51878;SHT31;37911;51.526;11.536;2024-03-25T06:17:13;5.61;84.13
51878;SHT31;37911;51.526;11.536;2024-03-25T06:20:14;5.80;84.24
51878;SHT31;37911;51.526;11.536;2024-03-25T06:23:21;6.63;81.28
51878;SHT31;37911;51.526;11.536;2024-03-25T06:26:22;7.03;79.10
51878;SHT31;37911;51.526;11.536;2024-03-25T06:29:25;7.35;77.29
51878;SHT31;37911;51.526;11.536;2024-03-25T06:32:25;6.77;77.76
51878;SHT31;37911;51.526;11.536;2024-03-25T06:35:42;6.72;78.61
51878;SHT31;37911;51.526;11.536;2024-03-25T06:38:42;6.49;79.49
51878;SHT31;37911;51.526;11.536;2024-03-25T06:41:43;6.35;80.49
51878;SHT31;37911;51.526;11.536;2024-03-25T06:44:46;6.20;81.28
51878;SHT31;37911;51.526;11.536;2024-03-25T06:47:47;6.01;82.52
51878;SHT31;37911;51.526;11.536;2024-03-25T06:50:52;5.91;82.23
51878;SHT31;37911;51.526;11.536;2024-03-25T06:53:52;5.88;82.55
51878;SHT31;37911;51.526;11.536;2024-03-25T06:56:53;5.91;82.30
51878;SHT31;37911;51.526;11.536;2024-03-25T06:59:56;5.90;82.48
51878;SHT31;37911;51.526;11.536;2024-03-25T07:02:57;6.11;82.26
51878;SHT31;37911;51.526;11.536;2024-03-25T07:05:57;6.25;81.43
51878;SHT31;37911;51.526;11.536;2024-03-25T07:08:58;6.32;81.18
51878;SHT31;37911;51.526;11.536;2024-03-25T07:11:58;6.50;81.79
51878;SHT31;37911;51.526;11.536;2024-03-25T07:15:02;6.61;81.62
51878;SHT31;37911;51.526;11.536;2024-03-25T07:18:03;7.34;79.90
51878;SHT31;37911;51.526;11.536;2024-03-25T07:21:04;7.50;79.40
51878;SHT31;37911;51.526;11.536;2024-03-25T07:24:05;7.77;79.45
51878;SHT31;37911;51.526;11.536;2024-03-25T07:27:05;8.12;77.88
51878;SHT31;37911;51.526;11.536;2024-03-25T07:30:09;8.02;77.21
51878;SHT31;37911;51.526;11.536;2024-03-25T07:33:10;7.78;77.48
51878;SHT31;37911;51.526;11.536;2024-03-25T07:36:10;7.58;77.35
51878;SHT31;37911;51.526;11.536;2024-03-25T07:39:11;7.46;78.00
51878;SHT31;37911;51.526;11.536;2024-03-25T07:42:12;7.38;78.41
51878;SHT31;37911;51.526;11.536;2024-03-25T07:45:15;7.34;79.20
51878;SHT31;37911;51.526;11.536;2024-03-25T07:48:15;7.32;79.26
51878;SHT31;37911;51.526;11.536;2024-03-25T07:51:16;7.14;79.49
51878;SHT31;37911;51.526;11.536;2024-03-25T07:54:17;6.99;81.28
51878;SHT31;37911;51.526;11.536;2024-03-25T07:57:17;6.99;81.72
51878;SHT31;37911;51.526;11.536;2024-03-25T08:00:21;7.04;81.95
51878;SHT31;37911;51.526;11.536;2024-03-25T08:03:21;6.93;82.04
51878;SHT31;37911;51.526;11.536;2024-03-25T08:06:22;6.82;82.68
51878;SHT31;37911;51.526;11.536;2024-03-25T08:09:22;6.69;82.92
51878;SHT31;37911;51.526;11.536;2024-03-25T08:12:23;6.62;82.23
51878;SHT31;37911;51.526;11.536;2024-03-25T08:15:26;6.48;82.61
51878;SHT31;37911;51.526;11.536;2024-03-25T08:18:27;6.41;83.17
51878;SHT31;37911;51.526;11.536;2024-03-25T08:21:27;6.43;83.61
51878;SHT31;37911;51.526;11.536;2024-03-25T08:24:28;6.38;84.03
51878;SHT31;37911;51.526;11.536;2024-03-25T08:27:28;6.22;84.13
51878;SHT31;37911;51.526;11.536;2024-03-25T08:30:33;6.12;84.04
51878;SHT31;37911;51.526;11.536;2024-03-25T08:33:33;6.11;84.28
51878;SHT31;37911;51.526;11.536;2024-03-25T08:36:34;6.17;84.64
51878;SHT31;37911;51.526;11.536;2024-03-25T08:39:34;6.28;85.06
51878;SHT31;37911;51.526;11.536;2024-03-25T08:42:35;6.33;85.77
51878;SHT31;37911;51.526;11.536;2024-03-25T08:45:38;6.39;85.41
51878;SHT31;37911;51.526;11.536;2024-03-25T08:48:39;6.45;85.73
51878;SHT31;37911;51.526;11.536;2024-03-25T08:51:39;6.43;85.30
51878;SHT31;37911;51.526;11.536;2024-03-25T08:54:40;6.55;85.34
51878;SHT31;37911;51.526;11.536;2024-03-25T08:57:40;6.65;84.47
51878;SHT31;37911;51.526;11.536;2024-03-25T09:00:46;6.73;84.42
51878;SHT31;37911;51.526;11.536;2024-03-25T09:03:46;6.85;84.52
51878;SHT31;37911;51.526;11.536;2024-03-25T09:06:47;6.99;84.36
51878;SHT31;37911;51.526;11.536;2024-03-25T09:09:48;7.35;83.67
51878;SHT31;37911;51.526;11.536;2024-03-25T09:13:04;8.42;82.74
51878;SHT31;37911;51.526;11.536;2024-03-25T09:16:07;8.83;79.75
51878;SHT31;37911;51.526;11.536;2024-03-25T09:19:08;9.03;80.45
51878;SHT31;37911;51.526;11.536;2024-03-25T09:22:09;8.56;79.37
51878;SHT31;37911;51.526;11.536;2024-03-25T09:25:09;8.25;79.54
51878;SHT31;37911;51.526;11.536;2024-03-25T09:28:10;7.98;81.12
51878;SHT31;37911;51.526;11.536;2024-03-25T09:31:13;7.95;80.99
51878;SHT31;37911;51.526;11.536;2024-03-25T09:34:14;8.05;81.26
51878;SHT31;37911;51.526;11.536;2024-03-25T09:37:15;8.16;80.52
51878;SHT31;37911;51.526;11.536;2024-03-25T09:40:15;8.47;79.77
51878;SHT31;37911;51.526;11.536;2024-03-25T09:43:23;9.10;79.34
51878;SHT31;37911;51.526;11.536;2024-03-25T09:46:28;9.36;78.62
51878;SHT31;37911;51.526;11.536;2024-03-25T09:49:28;9.31;76.70
51878;SHT31;37911;51.526;11.536;2024-03-25T09:52:30;9.38;75.88
51878;SHT31;37911;51.526;11.536;2024-03-25T09:55:30;9.49;76.28
51878;SHT31;37911;51.526;11.536;2024-03-25T09:58:32;9.63;77.35
51878;SHT31;37911;51.526;11.536;2024-03-25T10:01:37;9.99;77.74
51878;SHT31;37911;51.526;11.536;2024-03-25T10:04:40;10.03;75.55
51878;SHT31;37911;51.526;11.536;2024-03-25T10:07:44;9.99;75.51
51878;SHT31;37911;51.526;11.536;2024-03-25T10:10:45;9.73;75.37
51878;SHT31;37911;51.526;11.536;2024-03-25T10:13:46;9.52;75.83
51878;SHT31;37911;51.526;11.536;2024-03-25T10:16:50;9.14;75.79
51878;SHT31;37911;51.526;11.536;2024-03-25T10:19:53;8.85;75.15
51878;SHT31;37911;51.526;11.536;2024-03-25T10:22:54;8.47;75.16
51878;SHT31;37911;51.526;11.536;2024-03-25T10:25:55;8.19;77.06
51878;SHT31;37911;51.526;11.536;2024-03-25T10:29:00;8.09;77.80
51878;SHT31;37911;51.526;11.536;2024-03-25T10:32:04;8.13;80.97
51878;SHT31;37911;51.526;11.536;2024-03-25T10:35:06;8.09;81.25
51878;SHT31;37911;51.526;11.536;2024-03-25T10:38:10;8.13;79.34
51878;SHT31;37911;51.526;11.536;2024-03-25T10:41:13;8.06;79.67
51878;SHT31;37911;51.526;11.536;2024-03-25T10:44:17;8.03;80.14
51878;SHT31;37911;51.526;11.536;2024-03-25T10:47:24;7.68;78.96
51878;SHT31;37911;51.526;11.536;2024-03-25T10:50:29;7.59;80.69
51878;SHT31;37911;51.526;11.536;2024-03-25T10:53:30;7.75;80.31
51878;SHT31;37911;51.526;11.536;2024-03-25T10:56:32;8.16;80.58
51878;SHT31;37911;51.526;11.536;2024-03-25T10:59:34;8.59;79.52
51878;SHT31;37911;51.526;11.536;2024-03-25T11:02:38;8.70;77.86
51878;SHT31;37911;51.526;11.536;2024-03-25T11:05:39;8.97;77.02
51878;SHT31;37911;51.526;11.536;2024-03-25T11:08:40;9.11;76.53
51878;SHT31;37911;51.526;11.536;2024-03-25T11:11:42;9.12;75.36
51878;SHT31;37911;51.526;11.536;2024-03-25T11:14:42;9.05;76.29
51878;SHT31;37911;51.526;11.536;2024-03-25T11:17:51;9.15;76.56
51878;SHT31;37911;51.526;11.536;2024-03-25T11:21:01;9.21;72.62
51878;SHT31;37911;51.526;11.536;2024-03-25T11:24:06;9.41;72.45
51878;SHT31;37911;51.526;11.536;2024-03-25T11:27:07;9.48;72.70
51878;SHT31;37911;51.526;11.536;2024-03-25T11:30:08;9.53;73.59
51878;SHT31;37911;51.526;11.536;2024-03-25T11:33:12;9.56;71.42
51878;SHT31;37911;51.526;11.536;2024-03-25T11:36:13;9.60;71.58
51878;SHT31;37911;51.526;11.536;2024-03-25T11:39:16;9.78;73.06
51878;SHT31;37911;51.526;11.536;2024-03-25T11:42:16;10.33;71.97
51878;SHT31;37911;51.526;11.536;2024-03-25T11:45:18;10.36;70.35
51878;SHT31;37911;51.526;11.536;2024-03-25T11:48:22;10.24;70.86
51878;SHT31;37911;51.526;11.536;2024-03-25T11:51:23;10.40;72.05
51878;SHT31;37911;51.526;11.536;2024-03-25T11:54:27;10.44;72.11
51878;SHT31;37911;51.526;11.536;2024-03-25T11:57:28;10.29;70.48
51878;SHT31;37911;51.526;11.536;2024-03-25T12:00:29;10.33;67.62
51878;SHT31;37911;51.526;11.536;2024-03-25T12:03:33;10.60;68.02
51878;SHT31;37911;51.526;11.536;2024-03-25T12:06:34;10.75;67.25
51878;SHT31;37911;51.526;11.536;2024-03-25T12:09:35;10.98;64.78
51878;SHT31;37911;51.526;11.536;2024-03-25T12:12:51;11.14;63.83
51878;SHT31;37911;51.526;11.536;2024-03-25T12:15:55;11.32;64.62
51878;SHT31;37911;51.526;11.536;2024-03-25T12:18:58;11.28;64.83
51878;SHT31;37911;51.526;11.536;2024-03-25T12:21:59;11.73;64.93
51878;SHT31;37911;51.526;11.536;2024-03-25T12:25:01;11.66;62.46
51878;SHT31;37911;51.526;11.536;2024-03-25T12:28:08;11.66;61.09
51878;SHT31;37911;51.526;11.536;2024-03-25T12:31:09;11.40;59.50
51878;SHT31;37911;51.526;11.536;2024-03-25T12:34:12;11.26;60.00
51878;SHT31;37911;51.526;11.536;2024-03-25T12:37:15;11.16;59.69
51878;SHT31;37911;51.526;11.536;2024-03-25T12:40:26;10.89;62.60
51878;SHT31;37911;51.526;11.536;2024-03-25T12:43:27;10.68;62.55
51878;SHT31;37911;51.526;11.536;2024-03-25T12:46:27;10.45;60.70
51878;SHT31;37911;51.526;11.536;2024-03-25T12:49:31;10.57;61.09
51878;SHT31;37911;51.526;11.536;2024-03-25T12:52:32;10.67;60.16
51878;SHT31;37911;51.526;11.536;2024-03-25T12:55:32;10.77;59.97
51878;SHT31;37911;51.526;11.536;2024-03-25T12:58:33;11.09;58.03
51878;SHT31;37911;51.526;11.536;2024-03-25T13:01:34;11.18;57.16
51878;SHT31;37911;51.526;11.536;2024-03-25T13:04:37;11.05;55.16
51878;SHT31;37911;51.526;11.536;2024-03-25T13:07:38;11.04;53.87
51878;SHT31;37911;51.526;11.536;2024-03-25T13:10:38;11.04;53.76
51878;SHT31;37911;51.526;11.536;2024-03-25T13:13:39;10.85;51.35
51878;SHT31;37911;51.526;11.536;2024-03-25T13:16:39;10.98;53.73
51878;SHT31;37911;51.526;11.536;2024-03-25T13:19:43;10.89;52.08
51878;SHT31;37911;51.526;11.536;2024-03-25T13:22:43;10.88;51.45
51878;SHT31;37911;51.526;11.536;2024-03-25T13:25:44;10.78;53.63
51878;SHT31;37911;51.526;11.536;2024-03-25T13:28:45;10.88;53.66
51878;SHT31;37911;51.526;11.536;2024-03-25T13:31:45;10.71;53.61
51878;SHT31;37911;51.526;11.536;2024-03-25T13:34:48;10.79;52.47
51878;SHT31;37911;51.526;11.536;2024-03-25T13:37:49;11.15;51.47
51878;SHT31;37911;51.526;11.536;2024-03-25T13:40:50;11.52;50.39
51878;SHT31;37911;51.526;11.536;2024-03-25T13:43:50;11.94;50.49
51878;SHT31;37911;51.526;11.536;2024-03-25T13:46:51;12.17;50.59
51878;SHT31;37911;51.526;11.536;2024-03-25T13:50:02;11.95;51.35
51878;SHT31;37911;51.526;11.536;2024-03-25T13:53:03;11.70;49.79
51878;SHT31;37911;51.526;11.536;2024-03-25T13:56:05;11.58;51.33
51878;SHT31;37911;51.526;11.536;2024-03-25T13:59:06;11.22;51.18
51878;SHT31;37911;51.526;11.536;2024-03-25T14:02:06;11.08;51.33
51878;SHT31;37911;51.526;11.536;2024-03-25T14:05:09;10.91;52.42
51878;SHT31;37911;51.526;11.536;2024-03-25T14:08:10;10.81;51.18
51878;SHT31;37911;51.526;11.536;2024-03-25T14:11:11;10.77;50.21
51878;SHT31;37911;51.526;11.536;2024-03-25T14:14:11;10.72;53.31
51878;SHT31;37911;51.526;11.536;2024-03-25T14:17:12;10.82;51.44
51878;SHT31;37911;51.526;11.536;2024-03-25T14:20:15;10.84;50.70
51878;SHT31;37911;51.526;11.536;2024-03-25T14:23:16;11.38;51.84
51878;SHT31;37911;51.526;11.536;2024-03-25T14:26:16;11.76;48.15
51878;SHT31;37911;51.526;11.536;2024-03-25T14:29:17;11.80;50.98
51878;SHT31;37911;51.526;11.536;2024-03-25T14:32:18;11.52;50.99
51878;SHT31;37911;51.526;11.536;2024-03-25T14:35:21;11.42;52.34
51878;SHT31;37911;51.526;11.536;2024-03-25T14:38:22;11.79;48.51
51878;SHT31;37911;51.526;11.536;2024-03-25T14:41:23;11.91;47.92
51878;SHT31;37911;51.526;11.536;2024-03-25T14:44:23;11.87;48.81
51878;SHT31;37911;51.526;11.536;2024-03-25T14:47:24;11.77;49.40
51878;SHT31;37911;51.526;11.536;2024-03-25T14:50:27;11.39;48.80
51878;SHT31;37911;51.526;11.536;2024-03-25T14:53:27;11.29;51.97
51878;SHT31;37911;51.526;11.536;2024-03-25T14:56:28;10.99;51.12
51878;SHT31;37911;51.526;11.536;2024-03-25T14:59:29;10.95;50.32
51878;SHT31;37911;51.526;11.536;2024-03-25T15:02:30;11.07;51.28
51878;SHT31;37911;51.526;11.536;2024-03-25T15:05:33;11.08;51.18
51878;SHT31;37911;51.526;11.536;2024-03-25T15:08:33;11.11;51.07
51878;SHT31;37911;51.526;11.536;2024-03-25T15:11:34;11.01;49.23
51878;SHT31;37911;51.526;11.536;2024-03-25T15:14:34;10.95;48.32
51878;SHT31;37911;51.526;11.536;2024-03-25T15:17:35;10.85;49.35
51878;SHT31;37911;51.526;11.536;2024-03-25T15:20:38;10.65;52.38
51878;SHT31;37911;51.526;11.536;2024-03-25T15:23:39;10.48;51.53
51878;SHT31;37911;51.526;11.536;2024-03-25T15:26:39;10.37;51.40
51878;SHT31;37911;51.526;11.536;2024-03-25T15:29:40;10.20;51.21
51878;SHT31;37911;51.526;11.536;2024-03-25T15:32:41;10.10;52.42
51878;SHT31;37911;51.526;11.536;2024-03-25T15:35:44;9.92;52.94
51878;SHT31;37911;51.526;11.536;2024-03-25T15:38:45;9.92;52.02
51878;SHT31;37911;51.526;11.536;2024-03-25T15:41:46;9.78;53.27
51878;SHT31;37911;51.526;11.536;2024-03-25T15:44:49;9.72;54.30
51878;SHT31;37911;51.526;11.536;2024-03-25T15:47:50;9.80;53.87
51878;SHT31;37911;51.526;11.536;2024-03-25T15:50:53;9.79;53.63
51878;SHT31;37911;51.526;11.536;2024-03-25T15:53:54;9.72;52.92
51878;SHT31;37911;51.526;11.536;2024-03-25T15:56:55;9.76;53.60
51878;SHT31;37911;51.526;11.536;2024-03-25T15:59:55;9.76;52.61
51878;SHT31;37911;51.526;11.536;2024-03-25T16:02:56;9.80;52.03
51878;SHT31;37911;51.526;11.536;2024-03-25T16:05:59;9.86;53.39
51878;SHT31;37911;51.526;11.536;2024-03-25T16:09:00;9.89;51.99
51878;SHT31;37911;51.526;11.536;2024-03-25T16:12:00;9.89;50.61
51878;SHT31;37911;51.526;11.536;2024-03-25T16:15:01;9.90;50.87
51878;SHT31;37911;51.526;11.536;2024-03-25T16:18:02;9.93;51.66
51878;SHT31;37911;51.526;11.536;2024-03-25T16:21:06;9.79;52.33
51878;SHT31;37911;51.526;11.536;2024-03-25T16:24:13;9.82;52.15
51878;SHT31;37911;51.526;11.536;2024-03-25T16:27:14;9.76;52.16
51878;SHT31;37911;51.526;11.536;2024-03-25T16:30:14;9.72;51.64
51878;SHT31;37911;51.526;11.536;2024-03-25T16:33:15;9.72;51.46
51878;SHT31;37911;51.526;11.536;2024-03-25T16:36:18;9.72;52.51
51878;SHT31;37911;51.526;11.536;2024-03-25T16:39:19;9.72;51.75
51878;SHT31;37911;51.526;11.536;2024-03-25T16:42:20;9.62;52.38
51878;SHT31;37911;51.526;11.536;2024-03-25T16:45:20;9.52;54.43
51878;SHT31;37911;51.526;11.536;2024-03-25T16:48:21;9.42;55.33
51878;SHT31;37911;51.526;11.536;2024-03-25T16:51:24;9.28;55.26
51878;SHT31;37911;51.526;11.536;2024-03-25T16:54:25;9.19;55.41
51878;SHT31;37911;51.526;11.536;2024-03-25T16:57:26;9.07;55.80
51878;SHT31;37911;51.526;11.536;2024-03-25T17:00:26;8.92;56.76
51878;SHT31;37911;51.526;11.536;2024-03-25T17:03:27;8.87;57.63
51878;SHT31;37911;51.526;11.536;2024-03-25T17:06:30;8.80;57.44
51878;SHT31;37911;51.526;11.536;2024-03-25T17:09:31;8.70;59.57
51878;SHT31;37911;51.526;11.536;2024-03-25T17:12:32;8.64;58.58
51878;SHT31;37911;51.526;11.536;2024-03-25T17:15:32;8.56;59.07
51878;SHT31;37911;51.526;11.536;2024-03-25T17:18:33;8.49;59.70
51878;SHT31;37911;51.526;11.536;2024-03-25T17:21:36;8.40;59.12
51878;SHT31;37911;51.526;11.536;2024-03-25T17:24:40;8.30;60.44
51878;SHT31;37911;51.526;11.536;2024-03-25T17:27:40;8.22;61.10
51878;SHT31;37911;51.526;11.536;2024-03-25T17:30:41;8.14;62.02
51878;SHT31;37911;51.526;11.536;2024-03-25T17:33:42;8.06;61.78
51878;SHT31;37911;51.526;11.536;2024-03-25T17:36:45;7.88;63.38
51878;SHT31;37911;51.526;11.536;2024-03-25T17:39:46;7.79;64.04
51878;SHT31;37911;51.526;11.536;2024-03-25T17:42:47;7.68;65.14
51878;SHT31;37911;51.526;11.536;2024-03-25T17:45:48;7.61;66.15
51878;SHT31;37911;51.526;11.536;2024-03-25T17:48:48;7.51;67.53
51878;SHT31;37911;51.526;11.536;2024-03-25T17:51:53;7.47;67.47
51878;SHT31;37911;51.526;11.536;2024-03-25T17:54:53;7.32;69.36
51878;SHT31;37911;51.526;11.536;2024-03-25T17:57:54;7.14;70.93
51878;SHT31;37911;51.526;11.536;2024-03-25T18:00:55;7.04;71.40
51878;SHT31;37911;51.526;11.536;2024-03-25T18:03:56;7.00;71.14
51878;SHT31;37911;51.526;11.536;2024-03-25T18:06:59;6.93;71.85
51878;SHT31;37911;51.526;11.536;2024-03-25T18:09:59;6.82;71.71
51878;SHT31;37911;51.526;11.536;2024-03-25T18:13:00;6.66;72.70
51878;SHT31;37911;51.526;11.536;2024-03-25T18:16:01;6.62;72.77
51878;SHT31;37911;51.526;11.536;2024-03-25T18:19:01;6.45;73.07
51878;SHT31;37911;51.526;11.536;2024-03-25T18:22:04;6.43;73.11
51878;SHT31;37911;51.526;11.536;2024-03-25T18:25:05;6.25;73.25
51878;SHT31;37911;51.526;11.536;2024-03-25T18:28:06;6.20;73.58
51878;SHT31;37911;51.526;11.536;2024-03-25T18:31:07;6.11;73.59
51878;SHT31;37911;51.526;11.536;2024-03-25T18:34:07;5.98;74.59
51878;SHT31;37911;51.526;11.536;2024-03-25T18:37:11;6.05;74.17
51878;SHT31;37911;51.526;11.536;2024-03-25T18:40:12;5.97;74.87
51878;SHT31;37911;51.526;11.536;2024-03-25T18:43:13;5.78;75.00
51878;SHT31;37911;51.526;11.536;2024-03-25T18:46:14;5.68;75.20
51878;SHT31;37911;51.526;11.536;2024-03-25T18:49:14;5.56;75.92
51878;SHT31;37911;51.526;11.536;2024-03-25T18:52:17;5.57;76.01
51878;SHT31;37911;51.526;11.536;2024-03-25T18:55:18;5.40;76.12
51878;SHT31;37911;51.526;11.536;2024-03-25T18:58:19;5.39;76.72
51878;SHT31;37911;51.526;11.536;2024-03-25T19:01:20;5.39;76.76
51878;SHT31;37911;51.526;11.536;2024-03-25T19:04:20;5.39;77.26